sensor_id;sensor_type;location;lat;lon;timestamp;P1;durP1;ratioP1;P2;durP2;ratioP2
57295;SDS011;43146;50.976;18.216;2023-05-14T00:01:59;18.70;;;9.40;;
57295;SDS011;43146;50.976;18.216;2023-05-14T00:04:25;23.80;;;12.80;;
57295;SDS011;43146;50.976;18.216;2023-05-14T00:06:51;23.40;;;10.50;;
57295;SDS011;43146;50.976;18.216;2023-05-14T00:09:17;24.00;;;10.10;;
57295;SDS011;43146;50.976;18.216;2023-05-14T00:11:43;21.50;;;10.30;;
57295;SDS011;43146;50.976;18.216;2023-05-14T00:14:08;23.80;;;11.60;;
57295;SDS011;43146;50.976;18.216;2023-05-14T00:16:34;19.80;;;10.00;;
57295;SDS011;43146;50.976;18.216;2023-05-14T00:19:00;23.20;;;10.50;;
57295;SDS011;43146;50.976;18.216;2023-05-14T00:21:26;23.50;;;11.00;;
57295;SDS011;43146;50.976;18.216;2023-05-14T00:23:51;20.90;;;10.40;;
57295;SDS011;43146;50.976;18.216;2023-05-14T00:26:17;16.30;;;8.30;;
57295;SDS011;43146;50.976;18.216;2023-05-14T00:28:42;16.50;;;7.50;;
57295;SDS011;43146;50.976;18.216;2023-05-14T00:31:08;16.10;;;7.70;;
57295;SDS011;43146;50.976;18.216;2023-05-14T00:33:34;15.30;;;7.20;;
57295;SDS011;43146;50.976;18.216;2023-05-14T00:36:00;16.70;;;7.90;;
57295;SDS011;43146;50.976;18.216;2023-05-14T00:38:26;16.30;;;8.50;;
57295;SDS011;43146;50.976;18.216;2023-05-14T00:40:52;17.80;;;8.90;;
57295;SDS011;43146;50.976;18.216;2023-05-14T00:43:19;16.80;;;8.20;;
57295;SDS011;43146;50.976;18.216;2023-05-14T00:45:49;18.10;;;8.40;;
57295;SDS011;43146;50.976;18.216;2023-05-14T00:48:15;16.00;;;8.40;;
57295;SDS011;43146;50.976;18.216;2023-05-14T00:50:41;15.80;;;7.70;;
57295;SDS011;43146;50.976;18.216;2023-05-14T00:53:08;17.20;;;8.80;;
57295;SDS011;43146;50.976;18.216;2023-05-14T00:55:38;16.80;;;8.70;;
57295;SDS011;43146;50.976;18.216;2023-05-14T00:58:06;17.40;;;9.00;;
57295;SDS011;43146;50.976;18.216;2023-05-14T01:00:35;32.90;;;14.00;;
57295;SDS011;43146;50.976;18.216;2023-05-14T01:03:02;31.30;;;14.40;;
57295;SDS011;43146;50.976;18.216;2023-05-14T01:08:25;29.80;;;14.90;;
57295;SDS011;43146;50.976;18.216;2023-05-14T01:10:59;26.00;;;13.20;;
57295;SDS011;43146;50.976;18.216;2023-05-14T01:13:40;22.80;;;10.90;;
57295;SDS011;43146;50.976;18.216;2023-05-14T01:16:15;20.50;;;10.80;;
57295;SDS011;43146;50.976;18.216;2023-05-14T01:18:43;21.00;;;11.70;;
57295;SDS011;43146;50.976;18.216;2023-05-14T01:21:22;26.90;;;12.20;;
57295;SDS011;43146;50.976;18.216;2023-05-14T01:23:59;22.00;;;11.70;;
57295;SDS011;43146;50.976;18.216;2023-05-14T01:26:25;24.70;;;12.80;;
57295;SDS011;43146;50.976;18.216;2023-05-14T01:28:52;22.80;;;12.00;;
57295;SDS011;43146;50.976;18.216;2023-05-14T01:31:20;24.80;;;13.00;;
57295;SDS011;43146;50.976;18.216;2023-05-14T01:33:52;22.90;;;11.50;;
57295;SDS011;43146;50.976;18.216;2023-05-14T01:36:19;15.00;;;7.80;;
57295;SDS011;43146;50.976;18.216;2023-05-14T01:38:45;18.90;;;9.30;;
57295;SDS011;43146;50.976;18.216;2023-05-14T01:41:12;18.50;;;9.90;;
57295;SDS011;43146;50.976;18.216;2023-05-14T01:43:39;17.10;;;9.20;;
57295;SDS011;43146;50.976;18.216;2023-05-14T01:46:05;20.50;;;10.10;;
57295;SDS011;43146;50.976;18.216;2023-05-14T01:48:31;19.60;;;11.70;;
57295;SDS011;43146;50.976;18.216;2023-05-14T01:50:57;22.70;;;10.90;;
57295;SDS011;43146;50.976;18.216;2023-05-14T01:53:22;26.80;;;14.30;;
57295;SDS011;43146;50.976;18.216;2023-05-14T01:55:48;27.00;;;12.20;;
57295;SDS011;43146;50.976;18.216;2023-05-14T01:58:14;23.80;;;12.40;;
57295;SDS011;43146;50.976;18.216;2023-05-14T02:00:40;22.10;;;11.90;;
57295;SDS011;43146;50.976;18.216;2023-05-14T02:03:06;21.30;;;11.20;;
57295;SDS011;43146;50.976;18.216;2023-05-14T02:05:31;22.90;;;12.80;;
57295;SDS011;43146;50.976;18.216;2023-05-14T02:07:57;22.30;;;12.50;;
57295;SDS011;43146;50.976;18.216;2023-05-14T02:10:22;22.80;;;11.80;;
57295;SDS011;43146;50.976;18.216;2023-05-14T02:12:48;27.80;;;13.90;;
57295;SDS011;43146;50.976;18.216;2023-05-14T02:15:14;70.10;;;32.10;;
57295;SDS011;43146;50.976;18.216;2023-05-14T02:17:40;26.90;;;13.40;;
57295;SDS011;43146;50.976;18.216;2023-05-14T02:20:06;27.10;;;13.00;;
57295;SDS011;43146;50.976;18.216;2023-05-14T02:22:32;27.60;;;14.00;;
57295;SDS011;43146;50.976;18.216;2023-05-14T02:24:58;29.10;;;13.80;;
57295;SDS011;43146;50.976;18.216;2023-05-14T02:27:23;26.60;;;14.50;;
57295;SDS011;43146;50.976;18.216;2023-05-14T02:29:49;26.20;;;13.50;;
57295;SDS011;43146;50.976;18.216;2023-05-14T02:32:15;25.10;;;13.80;;
57295;SDS011;43146;50.976;18.216;2023-05-14T02:34:41;27.80;;;13.50;;
57295;SDS011;43146;50.976;18.216;2023-05-14T02:37:06;27.80;;;13.40;;
57295;SDS011;43146;50.976;18.216;2023-05-14T02:39:32;24.40;;;13.00;;
57295;SDS011;43146;50.976;18.216;2023-05-14T02:41:58;23.50;;;12.20;;
57295;SDS011;43146;50.976;18.216;2023-05-14T02:44:33;23.90;;;12.80;;
57295;SDS011;43146;50.976;18.216;2023-05-14T02:46:59;22.90;;;13.10;;
57295;SDS011;43146;50.976;18.216;2023-05-14T02:49:25;30.80;;;15.80;;
57295;SDS011;43146;50.976;18.216;2023-05-14T02:51:51;27.90;;;14.40;;
57295;SDS011;43146;50.976;18.216;2023-05-14T02:54:18;29.10;;;14.00;;
57295;SDS011;43146;50.976;18.216;2023-05-14T02:56:44;25.60;;;14.10;;
57295;SDS011;43146;50.976;18.216;2023-05-14T02:59:10;27.60;;;14.10;;
57295;SDS011;43146;50.976;18.216;2023-05-14T03:01:36;28.20;;;13.80;;
57295;SDS011;43146;50.976;18.216;2023-05-14T03:04:02;25.50;;;14.10;;
57295;SDS011;43146;50.976;18.216;2023-05-14T03:06:28;48.10;;;22.00;;
57295;SDS011;43146;50.976;18.216;2023-05-14T03:08:54;28.90;;;14.60;;
57295;SDS011;43146;50.976;18.216;2023-05-14T03:11:20;28.30;;;15.10;;
57295;SDS011;43146;50.976;18.216;2023-05-14T03:13:46;25.10;;;14.00;;
57295;SDS011;43146;50.976;18.216;2023-05-14T03:16:12;29.20;;;14.40;;
57295;SDS011;43146;50.976;18.216;2023-05-14T03:18:37;137.60;;;54.20;;
57295;SDS011;43146;50.976;18.216;2023-05-14T03:21:03;35.50;;;18.60;;
57295;SDS011;43146;50.976;18.216;2023-05-14T03:23:29;29.00;;;16.00;;
57295;SDS011;43146;50.976;18.216;2023-05-14T03:25:59;29.50;;;16.30;;
57295;SDS011;43146;50.976;18.216;2023-05-14T03:28:26;31.40;;;15.70;;
57295;SDS011;43146;50.976;18.216;2023-05-14T03:30:52;34.00;;;18.00;;
57295;SDS011;43146;50.976;18.216;2023-05-14T03:33:18;32.90;;;17.10;;
57295;SDS011;43146;50.976;18.216;2023-05-14T03:35:44;30.70;;;16.20;;
57295;SDS011;43146;50.976;18.216;2023-05-14T03:38:09;30.80;;;15.70;;
57295;SDS011;43146;50.976;18.216;2023-05-14T03:40:35;29.70;;;15.60;;
57295;SDS011;43146;50.976;18.216;2023-05-14T03:43:01;38.00;;;18.80;;
57295;SDS011;43146;50.976;18.216;2023-05-14T03:45:26;32.80;;;16.10;;
57295;SDS011;43146;50.976;18.216;2023-05-14T03:47:54;26.80;;;14.10;;
57295;SDS011;43146;50.976;18.216;2023-05-14T03:50:20;30.30;;;14.00;;
57295;SDS011;43146;50.976;18.216;2023-05-14T03:52:50;25.60;;;14.50;;
57295;SDS011;43146;50.976;18.216;2023-05-14T03:55:19;29.20;;;15.20;;
57295;SDS011;43146;50.976;18.216;2023-05-14T03:57:48;29.60;;;15.40;;
57295;SDS011;43146;50.976;18.216;2023-05-14T04:00:14;29.70;;;16.10;;
57295;SDS011;43146;50.976;18.216;2023-05-14T04:02:41;42.60;;;21.50;;
57295;SDS011;43146;50.976;18.216;2023-05-14T04:05:07;52.80;;;26.90;;
57295;SDS011;43146;50.976;18.216;2023-05-14T04:07:33;32.30;;;16.50;;
57295;SDS011;43146;50.976;18.216;2023-05-14T04:09:58;31.90;;;15.60;;
57295;SDS011;43146;50.976;18.216;2023-05-14T04:12:25;28.50;;;13.90;;
57295;SDS011;43146;50.976;18.216;2023-05-14T04:14:51;29.00;;;15.50;;
57295;SDS011;43146;50.976;18.216;2023-05-14T04:17:17;26.90;;;14.00;;
57295;SDS011;43146;50.976;18.216;2023-05-14T04:19:43;28.00;;;14.30;;
57295;SDS011;43146;50.976;18.216;2023-05-14T04:22:08;25.70;;;13.20;;
57295;SDS011;43146;50.976;18.216;2023-05-14T04:24:34;22.50;;;12.90;;
57295;SDS011;43146;50.976;18.216;2023-05-14T04:27:00;24.20;;;12.70;;
57295;SDS011;43146;50.976;18.216;2023-05-14T04:29:26;25.20;;;14.00;;
57295;SDS011;43146;50.976;18.216;2023-05-14T04:31:51;23.20;;;11.70;;
57295;SDS011;43146;50.976;18.216;2023-05-14T04:34:17;23.90;;;12.10;;
57295;SDS011;43146;50.976;18.216;2023-05-14T04:36:43;21.00;;;10.80;;
57295;SDS011;43146;50.976;18.216;2023-05-14T04:39:09;23.00;;;12.30;;
57295;SDS011;43146;50.976;18.216;2023-05-14T04:41:36;23.60;;;11.90;;
57295;SDS011;43146;50.976;18.216;2023-05-14T04:44:02;20.30;;;10.90;;
57295;SDS011;43146;50.976;18.216;2023-05-14T04:46:29;23.00;;;10.40;;
57295;SDS011;43146;50.976;18.216;2023-05-14T04:48:55;19.50;;;10.00;;
57295;SDS011;43146;50.976;18.216;2023-05-14T04:51:21;19.60;;;9.50;;
57295;SDS011;43146;50.976;18.216;2023-05-14T04:53:47;19.20;;;10.20;;
57295;SDS011;43146;50.976;18.216;2023-05-14T04:56:13;17.00;;;9.20;;
57295;SDS011;43146;50.976;18.216;2023-05-14T04:58:39;18.40;;;9.40;;
57295;SDS011;43146;50.976;18.216;2023-05-14T05:01:05;17.80;;;9.00;;
57295;SDS011;43146;50.976;18.216;2023-05-14T05:03:31;16.40;;;7.70;;
57295;SDS011;43146;50.976;18.216;2023-05-14T05:05:58;15.10;;;6.80;;
57295;SDS011;43146;50.976;18.216;2023-05-14T05:08:24;18.30;;;7.40;;
57295;SDS011;43146;50.976;18.216;2023-05-14T05:10:50;16.60;;;7.10;;
57295;SDS011;43146;50.976;18.216;2023-05-14T05:13:16;13.70;;;6.30;;
57295;SDS011;43146;50.976;18.216;2023-05-14T05:15:42;14.50;;;6.60;;
57295;SDS011;43146;50.976;18.216;2023-05-14T05:18:08;14.00;;;6.70;;
57295;SDS011;43146;50.976;18.216;2023-05-14T05:20:34;13.50;;;6.60;;
57295;SDS011;43146;50.976;18.216;2023-05-14T05:22:59;13.50;;;6.30;;
57295;SDS011;43146;50.976;18.216;2023-05-14T05:25:25;14.90;;;6.50;;
57295;SDS011;43146;50.976;18.216;2023-05-14T05:27:52;13.30;;;6.80;;
57295;SDS011;43146;50.976;18.216;2023-05-14T05:30:17;14.70;;;6.70;;
57295;SDS011;43146;50.976;18.216;2023-05-14T05:32:43;14.20;;;5.80;;
57295;SDS011;43146;50.976;18.216;2023-05-14T05:35:09;12.70;;;6.00;;
57295;SDS011;43146;50.976;18.216;2023-05-14T05:37:35;15.40;;;6.80;;
57295;SDS011;43146;50.976;18.216;2023-05-14T05:40:01;14.40;;;6.30;;
57295;SDS011;43146;50.976;18.216;2023-05-14T05:42:28;13.10;;;5.60;;
57295;SDS011;43146;50.976;18.216;2023-05-14T05:44:54;13.50;;;6.20;;
57295;SDS011;43146;50.976;18.216;2023-05-14T05:47:20;12.30;;;5.70;;
57295;SDS011;43146;50.976;18.216;2023-05-14T05:49:48;12.20;;;6.00;;
57295;SDS011;43146;50.976;18.216;2023-05-14T05:52:14;10.90;;;4.90;;
57295;SDS011;43146;50.976;18.216;2023-05-14T05:54:40;13.70;;;4.90;;
57295;SDS011;43146;50.976;18.216;2023-05-14T05:57:06;13.60;;;5.10;;
57295;SDS011;43146;50.976;18.216;2023-05-14T05:59:32;12.30;;;5.40;;
57295;SDS011;43146;50.976;18.216;2023-05-14T06:01:58;11.70;;;4.90;;
57295;SDS011;43146;50.976;18.216;2023-05-14T06:04:23;11.40;;;4.60;;
57295;SDS011;43146;50.976;18.216;2023-05-14T06:06:49;10.90;;;4.20;;
57295;SDS011;43146;50.976;18.216;2023-05-14T06:09:15;9.30;;;4.00;;
57295;SDS011;43146;50.976;18.216;2023-05-14T06:11:41;10.00;;;4.30;;
57295;SDS011;43146;50.976;18.216;2023-05-14T06:14:06;10.40;;;4.50;;
57295;SDS011;43146;50.976;18.216;2023-05-14T06:16:32;12.30;;;4.10;;
57295;SDS011;43146;50.976;18.216;2023-05-14T06:18:58;9.80;;;3.80;;
57295;SDS011;43146;50.976;18.216;2023-05-14T06:21:23;9.90;;;3.20;;
57295;SDS011;43146;50.976;18.216;2023-05-14T06:23:49;9.90;;;3.20;;
57295;SDS011;43146;50.976;18.216;2023-05-14T06:26:15;9.30;;;3.40;;
57295;SDS011;43146;50.976;18.216;2023-05-14T06:28:40;8.50;;;3.20;;
57295;SDS011;43146;50.976;18.216;2023-05-14T06:31:06;8.30;;;3.40;;
57295;SDS011;43146;50.976;18.216;2023-05-14T06:33:32;10.70;;;3.30;;
57295;SDS011;43146;50.976;18.216;2023-05-14T06:35:58;8.40;;;2.40;;
57295;SDS011;43146;50.976;18.216;2023-05-14T06:38:25;6.30;;;2.60;;
57295;SDS011;43146;50.976;18.216;2023-05-14T06:40:51;6.90;;;2.80;;
57295;SDS011;43146;50.976;18.216;2023-05-14T06:43:17;8.40;;;3.10;;
57295;SDS011;43146;50.976;18.216;2023-05-14T06:45:47;8.40;;;2.90;;
57295;SDS011;43146;50.976;18.216;2023-05-14T06:48:14;9.00;;;3.10;;
57295;SDS011;43146;50.976;18.216;2023-05-14T06:50:43;8.90;;;3.10;;
57295;SDS011;43146;50.976;18.216;2023-05-14T06:53:11;9.00;;;3.50;;
57295;SDS011;43146;50.976;18.216;2023-05-14T06:55:37;8.10;;;2.90;;
57295;SDS011;43146;50.976;18.216;2023-05-14T06:58:04;7.40;;;2.80;;
57295;SDS011;43146;50.976;18.216;2023-05-14T07:00:32;7.60;;;2.90;;
57295;SDS011;43146;50.976;18.216;2023-05-14T07:02:58;7.80;;;2.90;;
57295;SDS011;43146;50.976;18.216;2023-05-14T07:05:24;7.10;;;2.70;;
57295;SDS011;43146;50.976;18.216;2023-05-14T07:07:51;8.00;;;2.50;;
57295;SDS011;43146;50.976;18.216;2023-05-14T07:10:17;6.80;;;2.70;;
57295;SDS011;43146;50.976;18.216;2023-05-14T07:12:42;7.50;;;2.80;;
57295;SDS011;43146;50.976;18.216;2023-05-14T07:15:08;6.70;;;2.40;;
57295;SDS011;43146;50.976;18.216;2023-05-14T07:17:34;7.80;;;2.70;;
57295;SDS011;43146;50.976;18.216;2023-05-14T07:20:00;8.80;;;2.50;;
57295;SDS011;43146;50.976;18.216;2023-05-14T07:22:25;7.50;;;2.40;;
57295;SDS011;43146;50.976;18.216;2023-05-14T07:24:51;8.80;;;2.50;;
57295;SDS011;43146;50.976;18.216;2023-05-14T07:27:17;11.20;;;2.60;;
57295;SDS011;43146;50.976;18.216;2023-05-14T07:29:43;6.80;;;2.60;;
57295;SDS011;43146;50.976;18.216;2023-05-14T07:32:09;8.80;;;2.60;;
57295;SDS011;43146;50.976;18.216;2023-05-14T07:34:35;7.80;;;2.70;;
57295;SDS011;43146;50.976;18.216;2023-05-14T07:37:01;6.00;;;2.30;;
57295;SDS011;43146;50.976;18.216;2023-05-14T07:39:27;6.60;;;2.30;;
57295;SDS011;43146;50.976;18.216;2023-05-14T07:41:53;5.30;;;2.20;;
57295;SDS011;43146;50.976;18.216;2023-05-14T07:44:22;10.10;;;2.80;;
57295;SDS011;43146;50.976;18.216;2023-05-14T07:46:47;6.40;;;2.30;;
57295;SDS011;43146;50.976;18.216;2023-05-14T07:49:13;7.20;;;2.10;;
57295;SDS011;43146;50.976;18.216;2023-05-14T07:51:39;5.30;;;1.90;;
57295;SDS011;43146;50.976;18.216;2023-05-14T07:54:05;5.20;;;1.80;;
57295;SDS011;43146;50.976;18.216;2023-05-14T07:56:31;5.10;;;2.20;;
57295;SDS011;43146;50.976;18.216;2023-05-14T07:58:56;5.00;;;1.90;;
57295;SDS011;43146;50.976;18.216;2023-05-14T08:01:22;4.80;;;2.00;;
57295;SDS011;43146;50.976;18.216;2023-05-14T08:03:48;3.80;;;1.80;;
57295;SDS011;43146;50.976;18.216;2023-05-14T08:06:14;5.70;;;2.10;;
57295;SDS011;43146;50.976;18.216;2023-05-14T08:08:40;5.90;;;2.00;;
57295;SDS011;43146;50.976;18.216;2023-05-14T08:11:05;7.80;;;2.00;;
57295;SDS011;43146;50.976;18.216;2023-05-14T08:13:31;5.40;;;2.00;;
57295;SDS011;43146;50.976;18.216;2023-05-14T08:15:57;6.10;;;2.10;;
57295;SDS011;43146;50.976;18.216;2023-05-14T08:18:23;5.80;;;1.90;;
57295;SDS011;43146;50.976;18.216;2023-05-14T08:20:49;4.60;;;1.90;;
57295;SDS011;43146;50.976;18.216;2023-05-14T08:23:15;4.90;;;2.00;;
57295;SDS011;43146;50.976;18.216;2023-05-14T08:25:41;5.90;;;2.00;;
57295;SDS011;43146;50.976;18.216;2023-05-14T08:28:07;5.10;;;2.00;;
57295;SDS011;43146;50.976;18.216;2023-05-14T08:30:33;5.00;;;2.00;;
57295;SDS011;43146;50.976;18.216;2023-05-14T08:32:58;4.10;;;2.00;;
57295;SDS011;43146;50.976;18.216;2023-05-14T08:35:24;5.80;;;2.00;;
57295;SDS011;43146;50.976;18.216;2023-05-14T08:37:50;4.80;;;2.00;;
57295;SDS011;43146;50.976;18.216;2023-05-14T08:40:17;3.90;;;1.80;;
57295;SDS011;43146;50.976;18.216;2023-05-14T08:42:43;5.80;;;2.20;;
57295;SDS011;43146;50.976;18.216;2023-05-14T08:45:12;5.70;;;2.20;;
57295;SDS011;43146;50.976;18.216;2023-05-14T08:47:42;6.20;;;2.00;;
57295;SDS011;43146;50.976;18.216;2023-05-14T08:50:13;5.90;;;2.00;;
57295;SDS011;43146;50.976;18.216;2023-05-14T08:52:40;6.50;;;1.80;;
57295;SDS011;43146;50.976;18.216;2023-05-14T08:55:09;9.60;;;2.20;;
57295;SDS011;43146;50.976;18.216;2023-05-14T08:57:37;4.20;;;1.90;;
57295;SDS011;43146;50.976;18.216;2023-05-14T09:00:03;4.90;;;1.90;;
57295;SDS011;43146;50.976;18.216;2023-05-14T09:02:35;4.50;;;1.90;;
57295;SDS011;43146;50.976;18.216;2023-05-14T09:05:01;6.00;;;2.00;;
57295;SDS011;43146;50.976;18.216;2023-05-14T09:07:29;4.40;;;1.90;;
57295;SDS011;43146;50.976;18.216;2023-05-14T09:09:55;6.30;;;2.10;;
57295;SDS011;43146;50.976;18.216;2023-05-14T09:12:22;4.60;;;1.90;;
57295;SDS011;43146;50.976;18.216;2023-05-14T09:14:49;5.80;;;2.00;;
57295;SDS011;43146;50.976;18.216;2023-05-14T09:17:16;7.70;;;2.20;;
57295;SDS011;43146;50.976;18.216;2023-05-14T09:19:42;4.60;;;2.20;;
57295;SDS011;43146;50.976;18.216;2023-05-14T09:22:09;6.80;;;2.20;;
57295;SDS011;43146;50.976;18.216;2023-05-14T09:24:36;4.20;;;1.90;;
57295;SDS011;43146;50.976;18.216;2023-05-14T09:27:03;4.60;;;1.90;;
57295;SDS011;43146;50.976;18.216;2023-05-14T09:29:29;6.60;;;2.10;;
57295;SDS011;43146;50.976;18.216;2023-05-14T09:31:56;5.40;;;1.90;;
57295;SDS011;43146;50.976;18.216;2023-05-14T09:34:24;7.30;;;2.10;;
57295;SDS011;43146;50.976;18.216;2023-05-14T09:36:58;5.40;;;2.00;;
57295;SDS011;43146;50.976;18.216;2023-05-14T09:39:24;4.50;;;1.90;;
57295;SDS011;43146;50.976;18.216;2023-05-14T09:41:51;5.80;;;2.00;;
57295;SDS011;43146;50.976;18.216;2023-05-14T09:44:18;5.30;;;1.90;;
57295;SDS011;43146;50.976;18.216;2023-05-14T09:46:44;5.80;;;2.10;;
57295;SDS011;43146;50.976;18.216;2023-05-14T09:49:10;4.70;;;1.90;;
57295;SDS011;43146;50.976;18.216;2023-05-14T09:51:37;5.30;;;2.00;;
57295;SDS011;43146;50.976;18.216;2023-05-14T09:54:04;7.40;;;2.10;;
57295;SDS011;43146;50.976;18.216;2023-05-14T09:56:34;6.00;;;2.60;;
57295;SDS011;43146;50.976;18.216;2023-05-14T09:59:00;6.40;;;2.00;;
57295;SDS011;43146;50.976;18.216;2023-05-14T10:01:28;5.50;;;2.10;;
57295;SDS011;43146;50.976;18.216;2023-05-14T10:03:55;6.10;;;2.20;;
57295;SDS011;43146;50.976;18.216;2023-05-14T10:06:24;6.00;;;2.10;;
57295;SDS011;43146;50.976;18.216;2023-05-14T10:08:53;5.30;;;2.30;;
57295;SDS011;43146;50.976;18.216;2023-05-14T10:11:23;6.40;;;2.20;;
57295;SDS011;43146;50.976;18.216;2023-05-14T10:13:56;6.10;;;2.20;;
57295;SDS011;43146;50.976;18.216;2023-05-14T10:16:36;7.20;;;1.90;;
57295;SDS011;43146;50.976;18.216;2023-05-14T10:19:07;7.40;;;2.30;;
57295;SDS011;43146;50.976;18.216;2023-05-14T10:21:37;5.80;;;2.10;;
57295;SDS011;43146;50.976;18.216;2023-05-14T10:24:05;6.50;;;2.30;;
57295;SDS011;43146;50.976;18.216;2023-05-14T10:26:33;6.10;;;2.20;;
57295;SDS011;43146;50.976;18.216;2023-05-14T10:29:03;5.70;;;2.10;;
57295;SDS011;43146;50.976;18.216;2023-05-14T10:34:38;4.60;;;2.00;;
57295;SDS011;43146;50.976;18.216;2023-05-14T10:42:14;6.60;;;2.50;;
57295;SDS011;43146;50.976;18.216;2023-05-14T10:44:46;7.90;;;2.20;;
57295;SDS011;43146;50.976;18.216;2023-05-14T10:47:16;7.10;;;2.30;;
57295;SDS011;43146;50.976;18.216;2023-05-14T10:49:43;6.00;;;2.00;;
57295;SDS011;43146;50.976;18.216;2023-05-14T10:52:10;6.70;;;2.20;;
57295;SDS011;43146;50.976;18.216;2023-05-14T10:54:37;6.10;;;2.10;;
57295;SDS011;43146;50.976;18.216;2023-05-14T10:57:07;6.20;;;2.20;;
57295;SDS011;43146;50.976;18.216;2023-05-14T10:59:36;5.90;;;2.00;;
57295;SDS011;43146;50.976;18.216;2023-05-14T11:02:03;8.10;;;2.50;;
57295;SDS011;43146;50.976;18.216;2023-05-14T11:04:30;6.00;;;2.20;;
57295;SDS011;43146;50.976;18.216;2023-05-14T11:06:57;7.60;;;2.30;;
57295;SDS011;43146;50.976;18.216;2023-05-14T11:09:26;6.60;;;2.20;;
57295;SDS011;43146;50.976;18.216;2023-05-14T11:11:52;6.40;;;2.40;;
57295;SDS011;43146;50.976;18.216;2023-05-14T11:14:19;7.00;;;2.40;;
57295;SDS011;43146;50.976;18.216;2023-05-14T11:16:45;7.00;;;2.30;;
57295;SDS011;43146;50.976;18.216;2023-05-14T11:19:11;5.90;;;2.10;;
57295;SDS011;43146;50.976;18.216;2023-05-14T11:21:37;7.20;;;2.40;;
57295;SDS011;43146;50.976;18.216;2023-05-14T11:24:03;5.90;;;2.40;;
57295;SDS011;43146;50.976;18.216;2023-05-14T11:26:31;6.40;;;2.50;;
57295;SDS011;43146;50.976;18.216;2023-05-14T11:28:58;5.30;;;2.10;;
57295;SDS011;43146;50.976;18.216;2023-05-14T11:31:24;7.40;;;2.50;;
57295;SDS011;43146;50.976;18.216;2023-05-14T11:33:51;7.40;;;2.50;;
57295;SDS011;43146;50.976;18.216;2023-05-14T11:36:17;7.70;;;2.50;;
57295;SDS011;43146;50.976;18.216;2023-05-14T11:38:46;8.50;;;2.50;;
57295;SDS011;43146;50.976;18.216;2023-05-14T11:41:13;7.80;;;2.50;;
57295;SDS011;43146;50.976;18.216;2023-05-14T11:43:40;9.70;;;2.80;;
57295;SDS011;43146;50.976;18.216;2023-05-14T11:46:06;9.40;;;3.00;;
57295;SDS011;43146;50.976;18.216;2023-05-14T11:48:32;7.60;;;2.60;;
57295;SDS011;43146;50.976;18.216;2023-05-14T11:50:58;7.10;;;2.80;;
57295;SDS011;43146;50.976;18.216;2023-05-14T11:53:25;8.30;;;2.90;;
57295;SDS011;43146;50.976;18.216;2023-05-14T11:55:52;8.10;;;2.70;;
57295;SDS011;43146;50.976;18.216;2023-05-14T11:58:19;8.80;;;2.90;;
57295;SDS011;43146;50.976;18.216;2023-05-14T12:00:48;7.20;;;2.80;;
57295;SDS011;43146;50.976;18.216;2023-05-14T12:03:15;7.20;;;2.70;;
57295;SDS011;43146;50.976;18.216;2023-05-14T12:08:25;7.10;;;2.80;;
57295;SDS011;43146;50.976;18.216;2023-05-14T12:10:52;8.00;;;2.70;;
57295;SDS011;43146;50.976;18.216;2023-05-14T12:13:19;8.00;;;2.40;;
57295;SDS011;43146;50.976;18.216;2023-05-14T12:15:52;7.40;;;2.70;;
57295;SDS011;43146;50.976;18.216;2023-05-14T12:18:20;7.70;;;2.90;;
57295;SDS011;43146;50.976;18.216;2023-05-14T12:20:46;7.30;;;2.90;;
57295;SDS011;43146;50.976;18.216;2023-05-14T12:23:12;8.60;;;2.90;;
57295;SDS011;43146;50.976;18.216;2023-05-14T12:25:39;9.90;;;3.10;;
57295;SDS011;43146;50.976;18.216;2023-05-14T12:28:14;8.00;;;3.10;;
57295;SDS011;43146;50.976;18.216;2023-05-14T12:30:41;8.10;;;3.20;;
57295;SDS011;43146;50.976;18.216;2023-05-14T12:33:07;12.00;;;3.40;;
57295;SDS011;43146;50.976;18.216;2023-05-14T12:35:32;8.80;;;3.40;;
57295;SDS011;43146;50.976;18.216;2023-05-14T12:38:00;8.10;;;3.00;;
57295;SDS011;43146;50.976;18.216;2023-05-14T12:40:27;7.80;;;3.00;;
57295;SDS011;43146;50.976;18.216;2023-05-14T12:42:53;7.90;;;2.90;;
57295;SDS011;43146;50.976;18.216;2023-05-14T12:45:19;11.70;;;3.20;;
57295;SDS011;43146;50.976;18.216;2023-05-14T12:47:45;8.00;;;3.20;;
57295;SDS011;43146;50.976;18.216;2023-05-14T12:50:11;11.60;;;3.10;;
57295;SDS011;43146;50.976;18.216;2023-05-14T12:52:37;8.00;;;3.10;;
57295;SDS011;43146;50.976;18.216;2023-05-14T12:55:03;8.20;;;3.20;;
57295;SDS011;43146;50.976;18.216;2023-05-14T12:57:29;8.50;;;3.00;;
57295;SDS011;43146;50.976;18.216;2023-05-14T12:59:55;9.70;;;3.20;;
57295;SDS011;43146;50.976;18.216;2023-05-14T13:02:22;8.20;;;3.30;;
57295;SDS011;43146;50.976;18.216;2023-05-14T13:04:48;6.80;;;2.90;;
57295;SDS011;43146;50.976;18.216;2023-05-14T13:07:14;9.60;;;3.30;;
57295;SDS011;43146;50.976;18.216;2023-05-14T13:09:40;8.80;;;3.20;;
57295;SDS011;43146;50.976;18.216;2023-05-14T13:12:07;12.50;;;5.30;;
57295;SDS011;43146;50.976;18.216;2023-05-14T13:14:33;12.50;;;5.60;;
57295;SDS011;43146;50.976;18.216;2023-05-14T13:17:01;12.00;;;5.00;;
57295;SDS011;43146;50.976;18.216;2023-05-14T13:19:27;8.80;;;3.70;;
57295;SDS011;43146;50.976;18.216;2023-05-14T13:21:53;19.30;;;11.60;;
57295;SDS011;43146;50.976;18.216;2023-05-14T13:24:19;46.10;;;26.80;;
57295;SDS011;43146;50.976;18.216;2023-05-14T13:26:44;8.70;;;3.80;;
57295;SDS011;43146;50.976;18.216;2023-05-14T13:29:10;12.70;;;5.60;;
57295;SDS011;43146;50.976;18.216;2023-05-14T13:31:36;23.00;;;11.70;;
57295;SDS011;43146;50.976;18.216;2023-05-14T13:34:03;47.40;;;22.80;;
57295;SDS011;43146;50.976;18.216;2023-05-14T13:36:28;14.10;;;7.00;;
57295;SDS011;43146;50.976;18.216;2023-05-14T13:38:56;9.90;;;3.90;;
57295;SDS011;43146;50.976;18.216;2023-05-14T13:41:24;12.50;;;6.10;;
57295;SDS011;43146;50.976;18.216;2023-05-14T13:43:51;9.80;;;4.70;;
57295;SDS011;43146;50.976;18.216;2023-05-14T13:46:17;14.20;;;7.00;;
57295;SDS011;43146;50.976;18.216;2023-05-14T13:48:43;8.90;;;3.50;;
57295;SDS011;43146;50.976;18.216;2023-05-14T13:51:09;9.10;;;3.70;;
57295;SDS011;43146;50.976;18.216;2023-05-14T13:53:35;8.40;;;3.20;;
57295;SDS011;43146;50.976;18.216;2023-05-14T13:56:01;8.20;;;3.30;;
57295;SDS011;43146;50.976;18.216;2023-05-14T13:58:27;9.30;;;3.80;;
57295;SDS011;43146;50.976;18.216;2023-05-14T14:00:53;9.10;;;3.60;;
57295;SDS011;43146;50.976;18.216;2023-05-14T14:03:19;12.50;;;6.00;;
57295;SDS011;43146;50.976;18.216;2023-05-14T14:05:45;13.40;;;6.00;;
57295;SDS011;43146;50.976;18.216;2023-05-14T14:08:11;10.10;;;4.00;;
57295;SDS011;43146;50.976;18.216;2023-05-14T14:10:37;10.60;;;4.20;;
57295;SDS011;43146;50.976;18.216;2023-05-14T14:13:05;8.30;;;3.80;;
57295;SDS011;43146;50.976;18.216;2023-05-14T14:15:31;8.40;;;3.60;;
57295;SDS011;43146;50.976;18.216;2023-05-14T14:17:58;11.20;;;3.70;;
57295;SDS011;43146;50.976;18.216;2023-05-14T14:20:23;9.00;;;4.00;;
57295;SDS011;43146;50.976;18.216;2023-05-14T14:22:50;13.80;;;8.10;;
57295;SDS011;43146;50.976;18.216;2023-05-14T14:25:15;14.50;;;8.90;;
57295;SDS011;43146;50.976;18.216;2023-05-14T14:27:41;9.50;;;4.50;;
57295;SDS011;43146;50.976;18.216;2023-05-14T14:30:07;10.10;;;4.80;;
57295;SDS011;43146;50.976;18.216;2023-05-14T14:32:46;11.50;;;4.20;;
57295;SDS011;43146;50.976;18.216;2023-05-14T14:35:13;9.50;;;4.10;;